sensor_id;sensor_type;location;lat;lon;timestamp;P1;durP1;ratioP1;P2;durP2;ratioP2
67558;SDS011;54388;53.536;49.300;2023-05-10T00:00:27;1.70;;;0.93;;
67558;SDS011;54388;53.536;49.300;2023-05-10T00:02:54;0.95;;;0.40;;
67558;SDS011;54388;53.536;49.300;2023-05-10T00:05:24;2.97;;;0.60;;
67558;SDS011;54388;53.536;49.300;2023-05-10T00:07:57;1.50;;;0.60;;
67558;SDS011;54388;53.536;49.300;2023-05-10T00:10:24;4.03;;;0.60;;
67558;SDS011;54388;53.536;49.300;2023-05-10T00:12:50;0.85;;;0.50;;
67558;SDS011;54388;53.536;49.300;2023-05-10T00:15:20;0.50;;;0.30;;
67558;SDS011;54388;53.536;49.300;2023-05-10T00:17:49;2.60;;;0.60;;
67558;SDS011;54388;53.536;49.300;2023-05-10T00:20:21;1.80;;;0.60;;
67558;SDS011;54388;53.536;49.300;2023-05-10T00:22:50;5.78;;;0.52;;
67558;SDS011;54388;53.536;49.300;2023-05-10T00:25:21;3.13;;;0.63;;
67558;SDS011;54388;53.536;49.300;2023-05-10T00:27:48;1.58;;;0.45;;
67558;SDS011;54388;53.536;49.300;2023-05-10T00:30:16;1.02;;;0.57;;
67558;SDS011;54388;53.536;49.300;2023-05-10T00:32:42;1.20;;;0.52;;
67558;SDS011;54388;53.536;49.300;2023-05-10T00:35:12;1.05;;;0.63;;
67558;SDS011;54388;53.536;49.300;2023-05-10T00:37:39;4.80;;;0.68;;
67558;SDS011;54388;53.536;49.300;2023-05-10T00:40:11;2.35;;;0.75;;
67558;SDS011;54388;53.536;49.300;2023-05-10T00:42:41;1.77;;;0.80;;
67558;SDS011;54388;53.536;49.300;2023-05-10T00:45:10;1.55;;;0.63;;
67558;SDS011;54388;53.536;49.300;2023-05-10T00:47:42;3.42;;;0.70;;
67558;SDS011;54388;53.536;49.300;2023-05-10T00:50:12;2.70;;;0.82;;
67558;SDS011;54388;53.536;49.300;2023-05-10T00:52:45;2.83;;;0.70;;
67558;SDS011;54388;53.536;49.300;2023-05-10T00:55:12;1.90;;;0.50;;
67558;SDS011;54388;53.536;49.300;2023-05-10T00:57:47;1.67;;;0.75;;
67558;SDS011;54388;53.536;49.300;2023-05-10T01:00:16;3.67;;;0.70;;
67558;SDS011;54388;53.536;49.300;2023-05-10T01:02:46;1.38;;;0.88;;
67558;SDS011;54388;53.536;49.300;2023-05-10T01:05:13;2.13;;;0.90;;
67558;SDS011;54388;53.536;49.300;2023-05-10T01:07:43;4.15;;;1.00;;
67558;SDS011;54388;53.536;49.300;2023-05-10T01:10:10;5.43;;;1.02;;
67558;SDS011;54388;53.536;49.300;2023-05-10T01:12:40;4.57;;;0.88;;
67558;SDS011;54388;53.536;49.300;2023-05-10T01:15:13;2.42;;;0.80;;
67558;SDS011;54388;53.536;49.300;2023-05-10T01:17:48;5.28;;;1.00;;
67558;SDS011;54388;53.536;49.300;2023-05-10T01:20:22;3.85;;;1.08;;
67558;SDS011;54388;53.536;49.300;2023-05-10T01:34:05;3.92;;;0.70;;
67558;SDS011;54388;53.536;49.300;2023-05-10T01:36:48;5.38;;;1.90;;
67558;SDS011;54388;53.536;49.300;2023-05-10T01:39:38;2.50;;;0.80;;
67558;SDS011;54388;53.536;49.300;2023-05-10T01:42:23;2.08;;;0.77;;
67558;SDS011;54388;53.536;49.300;2023-05-10T01:47:43;1.42;;;0.70;;
67558;SDS011;54388;53.536;49.300;2023-05-10T01:50:34;1.67;;;0.40;;
67558;SDS011;54388;53.536;49.300;2023-05-10T01:53:06;2.83;;;0.88;;
67558;SDS011;54388;53.536;49.300;2023-05-10T01:55:43;1.92;;;0.57;;
67558;SDS011;54388;53.536;49.300;2023-05-10T01:58:19;1.67;;;0.63;;
67558;SDS011;54388;53.536;49.300;2023-05-10T02:00:51;2.83;;;1.00;;
67558;SDS011;54388;53.536;49.300;2023-05-10T02:03:24;2.60;;;0.85;;
67558;SDS011;54388;53.536;49.300;2023-05-10T02:05:58;4.82;;;0.65;;
67558;SDS011;54388;53.536;49.300;2023-05-10T02:08:28;1.63;;;0.73;;
67558;SDS011;54388;53.536;49.300;2023-05-10T02:10:58;6.10;;;0.82;;
67558;SDS011;54388;53.536;49.300;2023-05-10T02:13:26;3.13;;;0.60;;
67558;SDS011;54388;53.536;49.300;2023-05-10T02:15:57;4.57;;;1.00;;
67558;SDS011;54388;53.536;49.300;2023-05-10T02:18:25;5.40;;;0.85;;
67558;SDS011;54388;53.536;49.300;2023-05-10T02:20:56;2.13;;;0.60;;
67558;SDS011;54388;53.536;49.300;2023-05-10T02:23:24;6.75;;;0.77;;
67558;SDS011;54388;53.536;49.300;2023-05-10T02:25:55;2.63;;;0.60;;
67558;SDS011;54388;53.536;49.300;2023-05-10T02:28:23;3.55;;;0.77;;
67558;SDS011;54388;53.536;49.300;2023-05-10T02:30:55;1.10;;;0.60;;
67558;SDS011;54388;53.536;49.300;2023-05-10T02:33:25;3.10;;;0.47;;
67558;SDS011;54388;53.536;49.300;2023-05-10T02:35:58;2.92;;;0.75;;
67558;SDS011;54388;53.536;49.300;2023-05-10T02:38:31;2.05;;;0.70;;
67558;SDS011;54388;53.536;49.300;2023-05-10T02:41:02;9.60;;;1.90;;
67558;SDS011;54388;53.536;49.300;2023-05-10T02:43:32;2.88;;;1.02;;
67558;SDS011;54388;53.536;49.300;2023-05-10T02:46:03;1.77;;;0.80;;
67558;SDS011;54388;53.536;49.300;2023-05-10T02:48:32;2.95;;;1.20;;
67558;SDS011;54388;53.536;49.300;2023-05-10T02:51:04;5.85;;;0.68;;
67558;SDS011;54388;53.536;49.300;2023-05-10T02:53:34;1.38;;;0.70;;
67558;SDS011;54388;53.536;49.300;2023-05-10T02:56:04;7.15;;;1.45;;
67558;SDS011;54388;53.536;49.300;2023-05-10T02:58:37;1.88;;;0.95;;
67558;SDS011;54388;53.536;49.300;2023-05-10T03:01:06;4.65;;;1.10;;
67558;SDS011;54388;53.536;49.300;2023-05-10T03:03:36;4.40;;;0.90;;
67558;SDS011;54388;53.536;49.300;2023-05-10T03:06:04;1.63;;;0.60;;
67558;SDS011;54388;53.536;49.300;2023-05-10T03:08:36;4.18;;;0.68;;
67558;SDS011;54388;53.536;49.300;2023-05-10T03:11:08;3.10;;;0.60;;
67558;SDS011;54388;53.536;49.300;2023-05-10T03:16:47;2.88;;;0.85;;
67558;SDS011;54388;53.536;49.300;2023-05-10T03:19:40;2.90;;;0.85;;
67558;SDS011;54388;53.536;49.300;2023-05-10T03:22:49;2.53;;;0.57;;
67558;SDS011;54388;53.536;49.300;2023-05-10T03:25:22;5.70;;;0.98;;
67558;SDS011;54388;53.536;49.300;2023-05-10T03:27:49;4.93;;;1.08;;
67558;SDS011;54388;53.536;49.300;2023-05-10T03:30:17;3.22;;;0.85;;
67558;SDS011;54388;53.536;49.300;2023-05-10T03:32:45;4.75;;;0.80;;
67558;SDS011;54388;53.536;49.300;2023-05-10T03:35:12;2.50;;;0.88;;
67558;SDS011;54388;53.536;49.300;2023-05-10T03:37:41;3.70;;;0.98;;
67558;SDS011;54388;53.536;49.300;2023-05-10T03:40:09;3.53;;;1.10;;
67558;SDS011;54388;53.536;49.300;2023-05-10T03:42:36;3.63;;;1.02;;
67558;SDS011;54388;53.536;49.300;2023-05-10T03:45:07;4.35;;;1.00;;
67558;SDS011;54388;53.536;49.300;2023-05-10T03:47:37;4.82;;;1.10;;
67558;SDS011;54388;53.536;49.300;2023-05-10T03:50:03;3.22;;;1.45;;
67558;SDS011;54388;53.536;49.300;2023-05-10T03:52:31;5.75;;;1.05;;
67558;SDS011;54388;53.536;49.300;2023-05-10T03:54:57;3.53;;;1.10;;
67558;SDS011;54388;53.536;49.300;2023-05-10T03:57:29;3.95;;;0.98;;
67558;SDS011;54388;53.536;49.300;2023-05-10T03:59:55;7.55;;;1.60;;
67558;SDS011;54388;53.536;49.300;2023-05-10T04:02:22;3.78;;;1.23;;
67558;SDS011;54388;53.536;49.300;2023-05-10T04:04:49;2.95;;;1.00;;
67558;SDS011;54388;53.536;49.300;2023-05-10T04:07:15;6.50;;;1.02;;
67558;SDS011;54388;53.536;49.300;2023-05-10T04:09:44;6.68;;;1.33;;
67558;SDS011;54388;53.536;49.300;2023-05-10T04:12:11;4.90;;;1.48;;
67558;SDS011;54388;53.536;49.300;2023-05-10T04:14:37;11.57;;;2.58;;
67558;SDS011;54388;53.536;49.300;2023-05-10T04:17:07;7.97;;;1.77;;
67558;SDS011;54388;53.536;49.300;2023-05-10T04:19:33;10.32;;;1.10;;
67558;SDS011;54388;53.536;49.300;2023-05-10T04:22:01;4.65;;;0.98;;
67558;SDS011;54388;53.536;49.300;2023-05-10T04:24:28;3.15;;;0.90;;
67558;SDS011;54388;53.536;49.300;2023-05-10T04:26:57;3.38;;;1.02;;
67558;SDS011;54388;53.536;49.300;2023-05-10T04:29:24;5.50;;;1.00;;
67558;SDS011;54388;53.536;49.300;2023-05-10T04:31:51;2.85;;;0.85;;
67558;SDS011;54388;53.536;49.300;2023-05-10T04:34:21;4.78;;;0.90;;
67558;SDS011;54388;53.536;49.300;2023-05-10T04:36:47;2.20;;;0.60;;
67558;SDS011;54388;53.536;49.300;2023-05-10T04:39:14;2.63;;;0.68;;
67558;SDS011;54388;53.536;49.300;2023-05-10T04:41:43;4.38;;;1.13;;
67558;SDS011;54388;53.536;49.300;2023-05-10T04:44:09;2.78;;;0.80;;
67558;SDS011;54388;53.536;49.300;2023-05-10T04:46:39;4.05;;;0.70;;
67558;SDS011;54388;53.536;49.300;2023-05-10T04:49:08;3.72;;;0.80;;
67558;SDS011;54388;53.536;49.300;2023-05-10T04:51:34;1.77;;;0.65;;
67558;SDS011;54388;53.536;49.300;2023-05-10T04:54:03;4.93;;;0.82;;
67558;SDS011;54388;53.536;49.300;2023-05-10T04:56:30;1.75;;;0.50;;
67558;SDS011;54388;53.536;49.300;2023-05-10T04:58:56;3.33;;;0.60;;
67558;SDS011;54388;53.536;49.300;2023-05-10T05:01:25;4.57;;;0.70;;
67558;SDS011;54388;53.536;49.300;2023-05-10T05:03:54;2.78;;;0.70;;
67558;SDS011;54388;53.536;49.300;2023-05-10T05:06:23;1.65;;;1.20;;
67558;SDS011;54388;53.536;49.300;2023-05-10T05:08:50;4.03;;;0.70;;
67558;SDS011;54388;53.536;49.300;2023-05-10T05:11:23;1.60;;;0.60;;
67558;SDS011;54388;53.536;49.300;2023-05-10T05:13:53;3.80;;;0.57;;
67558;SDS011;54388;53.536;49.300;2023-05-10T05:16:24;1.70;;;0.65;;
67558;SDS011;54388;53.536;49.300;2023-05-10T05:18:51;2.20;;;0.68;;
67558;SDS011;54388;53.536;49.300;2023-05-10T05:21:20;2.83;;;0.63;;
67558;SDS011;54388;53.536;49.300;2023-05-10T05:23:48;2.30;;;0.80;;
67558;SDS011;54388;53.536;49.300;2023-05-10T05:26:14;5.00;;;0.65;;
67558;SDS011;54388;53.536;49.300;2023-05-10T05:28:41;5.38;;;0.63;;
67558;SDS011;54388;53.536;49.300;2023-05-10T05:31:10;2.10;;;0.60;;
67558;SDS011;54388;53.536;49.300;2023-05-10T05:33:37;3.70;;;0.65;;
67558;SDS011;54388;53.536;49.300;2023-05-10T05:36:06;2.63;;;0.85;;
67558;SDS011;54388;53.536;49.300;2023-05-10T05:38:33;3.65;;;0.60;;
67558;SDS011;54388;53.536;49.300;2023-05-10T05:40:59;4.55;;;0.95;;
67558;SDS011;54388;53.536;49.300;2023-05-10T05:43:31;3.80;;;0.88;;
67558;SDS011;54388;53.536;49.300;2023-05-10T05:45:59;5.22;;;0.80;;
67558;SDS011;54388;53.536;49.300;2023-05-10T05:48:26;2.67;;;0.75;;
67558;SDS011;54388;53.536;49.300;2023-05-10T05:50:58;5.82;;;0.90;;
67558;SDS011;54388;53.536;49.300;2023-05-10T05:53:25;2.10;;;0.60;;
67558;SDS011;54388;53.536;49.300;2023-05-10T05:55:57;2.60;;;0.63;;
67558;SDS011;54388;53.536;49.300;2023-05-10T05:58:26;2.83;;;0.85;;
67558;SDS011;54388;53.536;49.300;2023-05-10T06:00:53;4.32;;;0.80;;
67558;SDS011;54388;53.536;49.300;2023-05-10T06:03:20;1.70;;;0.68;;
67558;SDS011;54388;53.536;49.300;2023-05-10T06:05:46;3.47;;;0.90;;
67558;SDS011;54388;53.536;49.300;2023-05-10T06:08:14;1.88;;;0.60;;
67558;SDS011;54388;53.536;49.300;2023-05-10T06:10:40;3.20;;;0.80;;
67558;SDS011;54388;53.536;49.300;2023-05-10T06:13:07;2.55;;;0.75;;
67558;SDS011;54388;53.536;49.300;2023-05-10T06:15:38;1.63;;;0.63;;
67558;SDS011;54388;53.536;49.300;2023-05-10T06:18:05;3.30;;;0.68;;
67558;SDS011;54388;53.536;49.300;2023-05-10T06:20:32;1.88;;;0.57;;
67558;SDS011;54388;53.536;49.300;2023-05-10T06:23:01;3.05;;;0.80;;
67558;SDS011;54388;53.536;49.300;2023-05-10T06:25:33;3.33;;;0.68;;
67558;SDS011;54388;53.536;49.300;2023-05-10T06:27:59;5.03;;;1.10;;
67558;SDS011;54388;53.536;49.300;2023-05-10T06:30:29;2.80;;;0.70;;
67558;SDS011;54388;53.536;49.300;2023-05-10T06:32:58;3.38;;;0.70;;
67558;SDS011;54388;53.536;49.300;2023-05-10T06:35:27;1.95;;;0.70;;
67558;SDS011;54388;53.536;49.300;2023-05-10T06:37:55;4.15;;;0.80;;
67558;SDS011;54388;53.536;49.300;2023-05-10T06:40:23;6.70;;;0.80;;
67558;SDS011;54388;53.536;49.300;2023-05-10T06:42:50;4.90;;;0.82;;
67558;SDS011;54388;53.536;49.300;2023-05-10T06:45:19;3.17;;;0.75;;
67558;SDS011;54388;53.536;49.300;2023-05-10T06:47:48;3.58;;;0.60;;
67558;SDS011;54388;53.536;49.300;2023-05-10T06:50:17;4.32;;;0.77;;
67558;SDS011;54388;53.536;49.300;2023-05-10T06:52:47;4.28;;;0.70;;
67558;SDS011;54388;53.536;49.300;2023-05-10T06:55:13;2.85;;;0.65;;
67558;SDS011;54388;53.536;49.300;2023-05-10T06:57:40;4.20;;;0.80;;
67558;SDS011;54388;53.536;49.300;2023-05-10T07:00:07;1.63;;;0.70;;
67558;SDS011;54388;53.536;49.300;2023-05-10T07:02:35;2.67;;;0.50;;
67558;SDS011;54388;53.536;49.300;2023-05-10T07:05:07;3.08;;;0.70;;
67558;SDS011;54388;53.536;49.300;2023-05-10T07:07:36;5.75;;;1.10;;
67558;SDS011;54388;53.536;49.300;2023-05-10T07:10:05;6.75;;;0.90;;
67558;SDS011;54388;53.536;49.300;2023-05-10T07:12:33;3.72;;;0.70;;
67558;SDS011;54388;53.536;49.300;2023-05-10T07:15:00;4.63;;;0.82;;
67558;SDS011;54388;53.536;49.300;2023-05-10T07:17:29;2.20;;;0.70;;
67558;SDS011;54388;53.536;49.300;2023-05-10T07:19:56;2.42;;;0.70;;
67558;SDS011;54388;53.536;49.300;2023-05-10T07:22:28;3.83;;;0.70;;
67558;SDS011;54388;53.536;49.300;2023-05-10T07:24:54;3.78;;;0.70;;
67558;SDS011;54388;53.536;49.300;2023-05-10T07:27:24;3.83;;;0.90;;
67558;SDS011;54388;53.536;49.300;2023-05-10T07:29:50;3.03;;;0.70;;
67558;SDS011;54388;53.536;49.300;2023-05-10T07:32:17;2.25;;;0.50;;
67558;SDS011;54388;53.536;49.300;2023-05-10T07:34:48;1.00;;;0.50;;
67558;SDS011;54388;53.536;49.300;2023-05-10T07:37:15;1.45;;;0.50;;
67558;SDS011;54388;53.536;49.300;2023-05-10T07:39:44;3.00;;;0.88;;
67558;SDS011;54388;53.536;49.300;2023-05-10T07:42:13;2.22;;;0.77;;
67558;SDS011;54388;53.536;49.300;2023-05-10T07:44:39;3.40;;;0.60;;
67558;SDS011;54388;53.536;49.300;2023-05-10T07:47:08;3.65;;;0.82;;
67558;SDS011;54388;53.536;49.300;2023-05-10T07:49:35;4.85;;;1.10;;
67558;SDS011;54388;53.536;49.300;2023-05-10T07:52:02;3.90;;;0.70;;
67558;SDS011;54388;53.536;49.300;2023-05-10T07:54:29;2.80;;;0.65;;
67558;SDS011;54388;53.536;49.300;2023-05-10T07:56:59;1.88;;;0.88;;
67558;SDS011;54388;53.536;49.300;2023-05-10T07:59:26;1.88;;;0.45;;
67558;SDS011;54388;53.536;49.300;2023-05-10T08:01:55;3.63;;;0.70;;
67558;SDS011;54388;53.536;49.300;2023-05-10T08:04:24;2.83;;;0.60;;
67558;SDS011;54388;53.536;49.300;2023-05-10T08:06:53;1.65;;;0.80;;
67558;SDS011;54388;53.536;49.300;2023-05-10T08:09:22;11.05;;;1.50;;
67558;SDS011;54388;53.536;49.300;2023-05-10T08:11:49;2.33;;;0.70;;
67558;SDS011;54388;53.536;49.300;2023-05-10T08:14:18;3.35;;;0.85;;
67558;SDS011;54388;53.536;49.300;2023-05-10T08:16:45;9.63;;;1.10;;
67558;SDS011;54388;53.536;49.300;2023-05-10T08:19:13;4.22;;;0.70;;
67558;SDS011;54388;53.536;49.300;2023-05-10T08:21:49;3.80;;;0.75;;
67558;SDS011;54388;53.536;49.300;2023-05-10T08:24:21;5.60;;;0.82;;
67558;SDS011;54388;53.536;49.300;2023-05-10T08:26:53;2.63;;;0.75;;
67558;SDS011;54388;53.536;49.300;2023-05-10T08:29:25;4.63;;;0.98;;
67558;SDS011;54388;53.536;49.300;2023-05-10T08:31:52;4.00;;;0.90;;
67558;SDS011;54388;53.536;49.300;2023-05-10T08:34:26;1.40;;;0.80;;
67558;SDS011;54388;53.536;49.300;2023-05-10T08:36:57;2.92;;;0.93;;
67558;SDS011;54388;53.536;49.300;2023-05-10T08:39:23;3.47;;;1.10;;
67558;SDS011;54388;53.536;49.300;2023-05-10T08:41:51;2.17;;;1.20;;
67558;SDS011;54388;53.536;49.300;2023-05-10T08:44:20;5.00;;;1.52;;
67558;SDS011;54388;53.536;49.300;2023-05-10T08:46:50;8.13;;;1.27;;
67558;SDS011;54388;53.536;49.300;2023-05-10T08:49:20;4.35;;;1.38;;
67558;SDS011;54388;53.536;49.300;2023-05-10T08:51:52;3.28;;;1.27;;
67558;SDS011;54388;53.536;49.300;2023-05-10T08:56:52;3.22;;;1.35;;
67558;SDS011;54388;53.536;49.300;2023-05-10T08:59:22;2.80;;;1.33;;
67558;SDS011;54388;53.536;49.300;2023-05-10T09:01:49;4.03;;;1.60;;
67558;SDS011;54388;53.536;49.300;2023-05-10T09:04:25;8.25;;;2.00;;
67558;SDS011;54388;53.536;49.300;2023-05-10T09:06:52;4.55;;;1.50;;
67558;SDS011;54388;53.536;49.300;2023-05-10T09:09:19;7.15;;;2.00;;
67558;SDS011;54388;53.536;49.300;2023-05-10T09:11:47;5.70;;;1.75;;
67558;SDS011;54388;53.536;49.300;2023-05-10T09:14:14;8.77;;;2.30;;
67558;SDS011;54388;53.536;49.300;2023-05-10T09:16:42;7.13;;;2.60;;
67558;SDS011;54388;53.536;49.300;2023-05-10T09:19:11;3.95;;;2.15;;
67558;SDS011;54388;53.536;49.300;2023-05-10T09:21:38;6.75;;;1.50;;
67558;SDS011;54388;53.536;49.300;2023-05-10T09:24:05;5.60;;;1.90;;
67558;SDS011;54388;53.536;49.300;2023-05-10T09:26:32;4.80;;;1.60;;
67558;SDS011;54388;53.536;49.300;2023-05-10T09:29:01;4.38;;;1.90;;
67558;SDS011;54388;53.536;49.300;2023-05-10T09:34:18;3.50;;;1.83;;
67558;SDS011;54388;53.536;49.300;2023-05-10T09:39:20;11.27;;;2.17;;
67558;SDS011;54388;53.536;49.300;2023-05-10T09:41:55;4.07;;;2.22;;
67558;SDS011;54388;53.536;49.300;2023-05-10T09:44:23;4.20;;;2.20;;
67558;SDS011;54388;53.536;49.300;2023-05-10T09:46:54;4.32;;;1.88;;
67558;SDS011;54388;53.536;49.300;2023-05-10T09:49:21;5.95;;;1.80;;
67558;SDS011;54388;53.536;49.300;2023-05-10T09:52:00;4.20;;;1.88;;
67558;SDS011;54388;53.536;49.300;2023-05-10T09:54:33;7.28;;;2.63;;
67558;SDS011;54388;53.536;49.300;2023-05-10T09:57:01;8.07;;;2.60;;
67558;SDS011;54388;53.536;49.300;2023-05-10T09:59:32;7.85;;;2.70;;
67558;SDS011;54388;53.536;49.300;2023-05-10T10:02:00;8.48;;;2.20;;
67558;SDS011;54388;53.536;49.300;2023-05-10T10:04:27;6.28;;;2.40;;
67558;SDS011;54388;53.536;49.300;2023-05-10T10:07:01;3.53;;;2.40;;
67558;SDS011;54388;53.536;49.300;2023-05-10T10:09:29;6.85;;;3.22;;
67558;SDS011;54388;53.536;49.300;2023-05-10T10:11:58;7.38;;;3.63;;
67558;SDS011;54388;53.536;49.300;2023-05-10T10:14:26;7.75;;;4.38;;
67558;SDS011;54388;53.536;49.300;2023-05-10T10:16:53;8.25;;;3.45;;
67558;SDS011;54388;53.536;49.300;2023-05-10T10:19:22;9.18;;;3.45;;
67558;SDS011;54388;53.536;49.300;2023-05-10T10:21:52;6.72;;;3.42;;
67558;SDS011;54388;53.536;49.300;2023-05-10T10:24:21;6.47;;;2.70;;
67558;SDS011;54388;53.536;49.300;2023-05-10T10:26:50;4.65;;;2.60;;
67558;SDS011;54388;53.536;49.300;2023-05-10T10:30:23;4.60;;;3.00;;
67558;SDS011;54388;53.536;49.300;2023-05-10T10:32:27;9.50;;;3.47;;
67558;SDS011;54388;53.536;49.300;2023-05-10T10:35:05;6.57;;;3.05;;
67558;SDS011;54388;53.536;49.300;2023-05-10T10:37:43;7.10;;;2.88;;
67558;SDS011;54388;53.536;49.300;2023-05-10T10:42:56;5.95;;;2.95;;
67558;SDS011;54388;53.536;49.300;2023-05-10T10:45:42;6.43;;;2.75;;
67558;SDS011;54388;53.536;49.300;2023-05-10T10:48:20;7.55;;;2.50;;
67558;SDS011;54388;53.536;49.300;2023-05-10T10:50:56;4.70;;;2.78;;
67558;SDS011;54388;53.536;49.300;2023-05-10T10:53:25;6.20;;;2.88;;
67558;SDS011;54388;53.536;49.300;2023-05-10T10:56:06;9.27;;;3.38;;
67558;SDS011;54388;53.536;49.300;2023-05-10T10:58:35;7.95;;;2.83;;
67558;SDS011;54388;53.536;49.300;2023-05-10T11:01:18;7.65;;;3.78;;
67558;SDS011;54388;53.536;49.300;2023-05-10T11:06:33;8.70;;;5.10;;
67558;SDS011;54388;53.536;49.300;2023-05-10T11:09:08;5.13;;;3.30;;
67558;SDS011;54388;53.536;49.300;2023-05-10T11:11:57;6.47;;;3.35;;
67558;SDS011;54388;53.536;49.300;2023-05-10T11:14:25;8.10;;;3.60;;
67558;SDS011;54388;53.536;49.300;2023-05-10T11:16:57;6.97;;;3.22;;
67558;SDS011;54388;53.536;49.300;2023-05-10T11:19:27;5.72;;;3.15;;
67558;SDS011;54388;53.536;49.300;2023-05-10T11:24:29;6.30;;;3.00;;
67558;SDS011;54388;53.536;49.300;2023-05-10T11:26:59;7.20;;;3.10;;
67558;SDS011;54388;53.536;49.300;2023-05-10T11:29:26;6.30;;;3.40;;
67558;SDS011;54388;53.536;49.300;2023-05-10T11:31:53;6.47;;;3.20;;
67558;SDS011;54388;53.536;49.300;2023-05-10T11:34:26;10.77;;;3.47;;
67558;SDS011;54388;53.536;49.300;2023-05-10T11:36:56;9.27;;;3.55;;
67558;SDS011;54388;53.536;49.300;2023-05-10T11:39:28;6.05;;;3.13;;
67558;SDS011;54388;53.536;49.300;2023-05-10T11:41:58;7.40;;;3.92;;
67558;SDS011;54388;53.536;49.300;2023-05-10T11:44:31;9.73;;;3.55;;
67558;SDS011;54388;53.536;49.300;2023-05-10T11:46:59;6.50;;;3.53;;
67558;SDS011;54388;53.536;49.300;2023-05-10T11:49:29;8.02;;;3.75;;
67558;SDS011;54388;53.536;49.300;2023-05-10T11:52:05;6.97;;;3.60;;
67558;SDS011;54388;53.536;49.300;2023-05-10T11:54:32;5.70;;;3.45;;
67558;SDS011;54388;53.536;49.300;2023-05-10T11:57:02;8.77;;;3.67;;
67558;SDS011;54388;53.536;49.300;2023-05-10T11:59:29;5.28;;;3.45;;
67558;SDS011;54388;53.536;49.300;2023-05-10T12:01:56;9.25;;;4.10;;
67558;SDS011;54388;53.536;49.300;2023-05-10T12:04:22;6.53;;;3.70;;
67558;SDS011;54388;53.536;49.300;2023-05-10T12:06:49;5.57;;;3.80;;
67558;SDS011;54388;53.536;49.300;2023-05-10T12:09:16;7.47;;;3.72;;
67558;SDS011;54388;53.536;49.300;2023-05-10T12:11:45;6.90;;;3.92;;
67558;SDS011;54388;53.536;49.300;2023-05-10T12:14:14;6.63;;;3.42;;
67558;SDS011;54388;53.536;49.300;2023-05-10T12:16:42;7.93;;;3.88;;
67558;SDS011;54388;53.536;49.300;2023-05-10T12:19:11;10.70;;;4.57;;
67558;SDS011;54388;53.536;49.300;2023-05-10T12:21:41;7.78;;;4.10;;
67558;SDS011;54388;53.536;49.300;2023-05-10T12:24:12;5.65;;;3.47;;
67558;SDS011;54388;53.536;49.300;2023-05-10T12:26:42;10.68;;;4.18;;
67558;SDS011;54388;53.536;49.300;2023-05-10T12:29:17;6.75;;;4.00;;
67558;SDS011;54388;53.536;49.300;2023-05-10T12:34:25;7.53;;;3.90;;
67558;SDS011;54388;53.536;49.300;2023-05-10T12:36:53;8.68;;;3.72;;
67558;SDS011;54388;53.536;49.300;2023-05-10T12:39:20;8.70;;;4.15;;
67558;SDS011;54388;53.536;49.300;2023-05-10T12:41:50;6.32;;;3.72;;
67558;SDS011;54388;53.536;49.300;2023-05-10T12:44:17;7.45;;;2.92;;
67558;SDS011;54388;53.536;49.300;2023-05-10T12:46:44;6.03;;;2.63;;
67558;SDS011;54388;53.536;49.300;2023-05-10T12:49:11;4.50;;;1.90;;
67558;SDS011;54388;53.536;49.300;2023-05-10T12:51:37;5.10;;;2.00;;
67558;SDS011;54388;53.536;49.300;2023-05-10T12:54:04;5.60;;;2.08;;
67558;SDS011;54388;53.536;49.300;2023-05-10T12:56:30;5.13;;;2.22;;
67558;SDS011;54388;53.536;49.300;2023-05-10T12:58:57;5.72;;;2.42;;
67558;SDS011;54388;53.536;49.300;2023-05-10T13:01:24;6.82;;;2.38;;
67558;SDS011;54388;53.536;49.300;2023-05-10T13:03:53;4.18;;;2.22;;
67558;SDS011;54388;53.536;49.300;2023-05-10T13:06:19;5.55;;;2.13;;
67558;SDS011;54388;53.536;49.300;2023-05-10T13:08:46;5.22;;;2.00;;
67558;SDS011;54388;53.536;49.300;2023-05-10T13:11:12;8.95;;;3.88;;
67558;SDS011;54388;53.536;49.300;2023-05-10T13:13:42;6.28;;;2.10;;
67558;SDS011;54388;53.536;49.300;2023-05-10T13:16:08;6.20;;;2.00;;
67558;SDS011;54388;53.536;49.300;2023-05-10T13:18:35;4.15;;;2.00;;
67558;SDS011;54388;53.536;49.300;2023-05-10T13:21:02;3.33;;;1.90;;
67558;SDS011;54388;53.536;49.300;2023-05-10T13:23:33;4.55;;;2.22;;
67558;SDS011;54388;53.536;49.300;2023-05-10T13:26:01;5.35;;;2.20;;
67558;SDS011;54388;53.536;49.300;2023-05-10T13:28:30;8.57;;;1.77;;
67558;SDS011;54388;53.536;49.300;2023-05-10T13:30:56;8.52;;;1.50;;
67558;SDS011;54388;53.536;49.300;2023-05-10T13:33:23;8.10;;;1.27;;
67558;SDS011;54388;53.536;49.300;2023-05-10T13:35:49;5.55;;;1.30;;
67558;SDS011;54388;53.536;49.300;2023-05-10T13:38:16;6.88;;;1.50;;
67558;SDS011;54388;53.536;49.300;2023-05-10T13:40:45;6.18;;;1.88;;
67558;SDS011;54388;53.536;49.300;2023-05-10T13:43:18;7.30;;;1.55;;
67558;SDS011;54388;53.536;49.300;2023-05-10T13:45:45;3.55;;;1.17;;
67558;SDS011;54388;53.536;49.300;2023-05-10T13:48:13;6.20;;;1.67;;
67558;SDS011;54388;53.536;49.300;2023-05-10T13:50:40;5.07;;;1.52;;
67558;SDS011;54388;53.536;49.300;2023-05-10T13:53:09;5.40;;;1.45;;
67558;SDS011;54388;53.536;49.300;2023-05-10T13:55:38;3.97;;;1.40;;
67558;SDS011;54388;53.536;49.300;2023-05-10T13:58:04;4.32;;;1.48;;
67558;SDS011;54388;53.536;49.300;2023-05-10T14:00:31;10.35;;;1.75;;
67558;SDS011;54388;53.536;49.300;2023-05-10T14:02:57;5.78;;;1.58;;
67558;SDS011;54388;53.536;49.300;2023-05-10T14:05:24;7.57;;;1.40;;
67558;SDS011;54388;53.536;49.300;2023-05-10T14:07:54;6.03;;;1.33;;
67558;SDS011;54388;53.536;49.300;2023-05-10T14:10:26;9.00;;;1.48;;
67558;SDS011;54388;53.536;49.300;2023-05-10T14:12:53;2.83;;;1.20;;
67558;SDS011;54388;53.536;49.300;2023-05-10T14:15:21;8.55;;;3.17;;
67558;SDS011;54388;53.536;49.300;2023-05-10T14:17:53;5.43;;;1.20;;
67558;SDS011;54388;53.536;49.300;2023-05-10T14:20:20;6.25;;;1.10;;
67558;SDS011;54388;53.536;49.300;2023-05-10T14:22:51;3.08;;;1.10;;
67558;SDS011;54388;53.536;49.300;2023-05-10T14:25:22;4.50;;;0.80;;
67558;SDS011;54388;53.536;49.300;2023-05-10T14:27:54;3.63;;;0.90;;
67558;SDS011;54388;53.536;49.300;2023-05-10T14:30:20;2.65;;;0.88;;
67558;SDS011;54388;53.536;49.300;2023-05-10T14:32:47;4.22;;;1.10;;
67558;SDS011;54388;53.536;49.300;2023-05-10T14:35:15;3.67;;;1.20;;
67558;SDS011;54388;53.536;49.300;2023-05-10T14:37:42;3.10;;;1.00;;
67558;SDS011;54388;53.536;49.300;2023-05-10T14:40:08;5.38;;;1.17;;
67558;SDS011;54388;53.536;49.300;2023-05-10T14:42:40;2.97;;;1.20;;
67558;SDS011;54388;53.536;49.300;2023-05-10T14:45:10;5.28;;;1.13;;
67558;SDS011;54388;53.536;49.300;2023-05-10T14:47:37;3.97;;;1.10;;
67558;SDS011;54388;53.536;49.300;2023-05-10T14:50:04;7.90;;;1.25;;
67558;SDS011;54388;53.536;49.300;2023-05-10T14:52:31;4.43;;;1.30;;
67558;SDS011;54388;53.536;49.300;2023-05-10T14:55:00;2.65;;;0.90;;
67558;SDS011;54388;53.536;49.300;2023-05-10T14:57:27;7.93;;;1.30;;
67558;SDS011;54388;53.536;49.300;2023-05-10T14:59:56;6.97;;;1.15;;
67558;SDS011;54388;53.536;49.300;2023-05-10T15:02:23;5.60;;;1.13;;
67558;SDS011;54388;53.536;49.300;2023-05-10T15:04:52;11.18;;;1.48;;
67558;SDS011;54388;53.536;49.300;2023-05-10T15:07:19;5.20;;;1.00;;
67558;SDS011;54388;53.536;49.300;2023-05-10T15:09:45;4.97;;;0.93;;
67558;SDS011;54388;53.536;49.300;2023-05-10T15:12:15;4.88;;;1.27;;
67558;SDS011;54388;53.536;49.300;2023-05-10T15:14:41;5.03;;;1.20;;
67558;SDS011;54388;53.536;49.300;2023-05-10T15:17:08;3.60;;;1.02;;
67558;SDS011;54388;53.536;49.300;2023-05-10T15:19:37;3.40;;;1.05;;
67558;SDS011;54388;53.536;49.300;2023-05-10T15:22:04;5.03;;;1.38;;